Time;durP1;ratioP1;P1;durP2;ratioP2;P2;SDS_P1;SDS_P2;PMS_P1;PMS_P2;Temp;Humidity;BMP_temperature;BMP_pressure;BME280_temperature;BME280_humidity;BME280_pressure;Samples;Min_cycle;Max_cycle;Signal;HPM_P1;HPM_P2
2022/05/09 00:00:00;;;;;;;7.05;5.35;;;13.40;99.90;;;;;;6213857;23;20009;-84
2022/05/09 00:02:26;;;;;;;5.80;4.90;;;13.40;99.90;;;;;;6191277;23;20024;-84
2022/05/09 00:04:51;;;;;;;7.35;5.47;;;13.40;99.90;;;;;;6191962;23;20001;-85
2022/05/09 00:07:17;;;;;;;7.65;5.53;;;13.40;99.90;;;;;;6190369;23;20009;-85
2022/05/09 00:09:43;;;;;;;10.23;5.13;;;13.40;99.90;;;;;;6185984;23;20008;-85
2022/05/09 00:12:09;;;;;;;9.27;5.30;;;13.30;99.90;;;;;;6185550;23;20009;-84
2022/05/09 00:14:35;;;;;;;14.07;5.03;;;13.30;99.90;;;;;;6185601;23;20001;-84
2022/05/09 00:17:00;;;;;;;8.40;5.07;;;13.20;99.90;;;;;;6208623;23;20056;-84
2022/05/09 00:19:26;;;;;;;6.50;4.82;;;13.20;99.90;;;;;;6184652;23;20005;-84
2022/05/09 00:21:53;;;;;;;8.30;5.43;;;13.30;99.90;;;;;;6185621;23;20029;-84
2022/05/09 00:24:20;;;;;;;7.35;5.63;;;13.20;99.90;;;;;;6188118;23;20047;-86
2022/05/09 00:26:47;;;;;;;8.60;5.97;;;13.30;99.90;;;;;;6189974;23;20005;-86
2022/05/09 00:29:14;;;;;;;7.88;5.63;;;13.30;99.90;;;;;;6192115;23;20001;-86
2022/05/09 00:31:43;;;;;;;8.43;5.85;;;13.30;99.90;;;;;;6193234;23;20005;-87
2022/05/09 00:34:12;;;;;;;9.27;6.07;;;13.20;99.90;;;;;;6193149;23;20009;-85
2022/05/09 00:36:39;;;;;;;7.05;5.57;;;13.20;99.90;;;;;;6192806;23;20008;-87
2022/05/09 00:39:06;;;;;;;8.75;6.25;;;13.20;99.90;;;;;;6192247;23;20004;-84
2022/05/09 00:41:34;;;;;;;8.93;5.00;;;13.20;99.90;;;;;;6190944;23;20001;-86
2022/05/09 00:44:02;;;;;;;9.38;6.18;;;13.10;99.90;;;;;;6215727;23;20351;-84
2022/05/09 00:46:29;;;;;;;5.82;5.22;;;13.00;99.90;;;;;;6192281;23;20005;-85
2022/05/09 00:48:58;;;;;;;8.18;5.38;;;13.00;99.90;;;;;;6193961;23;20410;-84
2022/05/09 00:51:25;;;;;;;6.65;5.75;;;12.90;99.90;;;;;;6192204;23;20009;-84
2022/05/09 00:53:53;;;;;;;8.95;6.43;;;12.80;99.90;;;;;;6191331;23;19997;-84
2022/05/09 00:56:25;;;;;;;7.93;5.63;;;12.80;99.90;;;;;;6187844;23;20067;-84
2022/05/09 00:59:02;;;;;;;7.72;6.03;;;12.80;99.90;;;;;;6210425;23;20016;-84
2022/05/09 01:01:28;;;;;;;8.45;6.10;;;12.80;99.90;;;;;;6216314;23;20009;-85
2022/05/09 01:04:02;;;;;;;8.88;5.95;;;12.90;99.90;;;;;;6215885;23;20032;-85
2022/05/09 01:06:28;;;;;;;9.70;6.20;;;12.90;99.90;;;;;;6190761;23;20447;-85
2022/05/09 01:08:53;;;;;;;10.18;6.30;;;12.90;99.90;;;;;;6212867;23;20012;-85
2022/05/09 01:11:23;;;;;;;13.27;6.90;;;12.90;99.90;;;;;;6213592;23;20001;-85
2022/05/09 01:13:54;;;;;;;8.82;6.68;;;13.00;99.90;;;;;;6213403;23;20011;-85
2022/05/09 01:16:21;;;;;;;12.25;6.43;;;13.00;99.90;;;;;;6215825;23;20005;-86
2022/05/09 01:18:48;;;;;;;8.70;6.57;;;12.90;99.90;;;;;;6191705;23;20011;-85
2022/05/09 01:21:34;;;;;;;10.32;6.57;;;12.90;99.90;;;;;;6189234;23;20057;-85
2022/05/09 01:24:01;;;;;;;9.38;6.63;;;12.90;99.90;;;;;;6189342;23;20489;-85
2022/05/09 01:26:27;;;;;;;7.43;6.57;;;12.90;99.90;;;;;;6189892;23;20020;-85
2022/05/09 01:28:55;;;;;;;11.93;6.53;;;12.90;99.90;;;;;;6188311;23;20055;-85
2022/05/09 01:31:21;;;;;;;9.88;7.30;;;12.80;99.90;;;;;;6187600;23;20431;-84
2022/05/09 01:33:51;;;;;;;11.82;6.80;;;12.80;99.90;;;;;;6189531;23;20008;-86
2022/05/09 01:36:21;;;;;;;9.85;7.18;;;12.80;99.90;;;;;;6189301;23;20459;-86
2022/05/09 01:39:04;;;;;;;7.90;6.35;;;12.80;99.90;;;;;;6213218;23;20074;-84
2022/05/09 01:41:39;;;;;;;9.55;6.85;;;12.80;99.90;;;;;;6188509;23;20009;-85
2022/05/09 01:44:04;;;;;;;9.93;6.82;;;12.80;99.90;;;;;;6212024;23;20036;-86
2022/05/09 01:46:31;;;;;;;9.27;6.43;;;12.70;99.90;;;;;;6186395;23;20055;-85
2022/05/09 01:51:44;;;;;;;6.78;5.85;;;12.70;99.90;;;;;;6187363;23;20015;-85
2022/05/09 01:54:11;;;;;;;9.02;7.10;;;12.60;99.90;;;;;;6211079;23;20458;-85
2022/05/09 01:56:39;;;;;;;8.45;7.07;;;12.60;99.90;;;;;;6209873;23;20006;-85
2022/05/09 01:59:07;;;;;;;7.78;5.93;;;12.60;99.90;;;;;;6186091;23;20080;-83
2022/05/09 02:01:42;;;;;;;7.63;6.05;;;12.60;99.90;;;;;;6208763;23;20023;-84
2022/05/09 02:04:08;;;;;;;8.38;6.47;;;12.60;99.90;;;;;;6209444;23;20033;-84
2022/05/09 02:06:33;;;;;;;11.23;7.13;;;12.60;99.90;;;;;;6208302;23;20008;-84
2022/05/09 02:08:59;;;;;;;10.50;7.13;;;12.50;99.90;;;;;;6185910;23;20087;-84
2022/05/09 02:11:24;;;;;;;11.73;7.28;;;12.50;99.90;;;;;;6184881;23;20005;-84
2022/05/09 02:13:52;;;;;;;9.55;7.07;;;12.50;99.90;;;;;;6189620;23;20004;-86
2022/05/09 02:16:40;;;;;;;12.15;7.70;;;12.50;99.90;;;;;;6189470;23;20077;-86
2022/05/09 02:19:08;;;;;;;9.45;7.40;;;12.50;99.90;;;;;;6217834;23;20011;-85
2022/05/09 02:21:54;;;;;;;9.02;7.28;;;12.50;99.90;;;;;;6193592;23;20037;-86
2022/05/09 02:24:22;;;;;;;9.45;6.97;;;12.40;99.90;;;;;;6188963;23;20009;-86
2022/05/09 02:27:11;;;;;;;9.18;6.50;;;12.40;99.90;;;;;;6216790;23;20283;-86
2022/05/09 02:29:39;;;;;;;11.02;6.63;;;12.30;99.90;;;;;;6189026;23;20009;-84
2022/05/09 02:32:06;;;;;;;13.55;6.90;;;12.30;99.90;;;;;;6185244;23;20008;-84
2022/05/09 02:34:33;;;;;;;10.30;6.97;;;12.30;99.90;;;;;;6209863;23;20024;-85
2022/05/09 02:36:59;;;;;;;7.28;6.22;;;12.20;99.90;;;;;;6208811;23;20325;-84
2022/05/09 02:39:24;;;;;;;8.23;6.13;;;12.20;99.90;;;;;;6208927;23;20104;-85
2022/05/09 02:41:50;;;;;;;13.13;6.82;;;12.20;99.90;;;;;;6186005;23;20044;-84
2022/05/09 02:44:15;;;;;;;7.90;6.07;;;12.20;99.90;;;;;;6184141;23;20506;-84
2022/05/09 02:46:42;;;;;;;8.27;6.90;;;12.20;99.90;;;;;;6208886;23;20001;-85
2022/05/09 02:49:08;;;;;;;9.23;6.70;;;12.00;99.90;;;;;;6185612;23;20009;-85
2022/05/09 02:51:34;;;;;;;10.82;6.88;;;11.90;99.90;;;;;;6185740;23;20008;-84
2022/05/09 02:54:00;;;;;;;10.98;6.70;;;11.90;99.90;;;;;;6184182;23;20001;-84
2022/05/09 02:56:26;;;;;;;7.93;6.85;;;11.90;99.90;;;;;;6185071;23;20087;-85
2022/05/09 02:58:52;;;;;;;9.73;6.80;;;11.80;99.90;;;;;;6218060;23;20325;-87
2022/05/09 03:01:18;;;;;;;10.18;7.15;;;11.90;99.90;;;;;;6216274;23;20040;-85
2022/05/09 03:06:28;;;;;;;11.13;7.20;;;11.90;99.90;;;;;;6187167;23;20028;-85
2022/05/09 03:08:53;;;;;;;10.73;7.20;;;11.90;99.90;;;;;;6186262;23;20380;-83
2022/05/09 03:11:19;;;;;;;12.30;7.68;;;11.90;99.90;;;;;;6185945;23;20021;-84
2022/05/09 03:13:44;;;;;;;10.93;7.20;;;11.90;99.90;;;;;;6187227;23;20008;-84
2022/05/09 03:16:11;;;;;;;9.65;7.30;;;11.80;99.90;;;;;;6186092;23;19997;-85
2022/05/09 03:18:37;;;;;;;8.70;7.20;;;11.80;99.90;;;;;;6185180;23;20494;-84
2022/05/09 03:21:03;;;;;;;11.82;8.43;;;11.80;99.90;;;;;;6210592;23;20343;-84
2022/05/09 03:23:29;;;;;;;11.82;7.05;;;11.80;99.90;;;;;;6211307;23;20009;-84
2022/05/09 03:25:55;;;;;;;9.70;7.75;;;11.90;99.90;;;;;;6186157;23;20013;-84
2022/05/09 03:28:27;;;;;;;11.60;8.10;;;11.80;99.90;;;;;;6209056;23;20501;-84
2022/05/09 03:30:54;;;;;;;12.65;8.60;;;11.70;99.90;;;;;;6185425;23;20028;-84
2022/05/09 03:33:20;;;;;;;11.15;7.43;;;11.60;99.90;;;;;;6185589;23;20032;-84
2022/05/09 03:35:46;;;;;;;11.63;8.05;;;11.70;99.90;;;;;;6184081;23;20561;-84
2022/05/09 03:38:12;;;;;;;9.32;6.93;;;11.60;99.90;;;;;;6185511;23;19993;-84
2022/05/09 03:40:39;;;;;;;12.38;7.43;;;11.60;99.90;;;;;;6185819;23;20028;-84
2022/05/09 03:43:06;;;;;;;14.13;8.05;;;11.50;99.90;;;;;;6185686;23;20013;-84
2022/05/09 03:45:32;;;;;;;11.02;8.45;;;11.50;99.90;;;;;;6186128;23;20153;-84
2022/05/09 03:47:59;;;;;;;12.50;9.07;;;11.60;99.90;;;;;;6185973;23;20005;-84
2022/05/09 03:50:27;;;;;;;11.57;8.23;;;11.60;99.90;;;;;;6185612;23;20028;-86
2022/05/09 03:52:52;;;;;;;14.30;8.25;;;11.50;99.90;;;;;;6208844;23;20085;-83
2022/05/09 03:55:18;;;;;;;14.15;9.13;;;11.60;99.90;;;;;;6208839;23;20069;-82
2022/05/09 03:57:52;;;;;;;11.20;8.68;;;11.50;99.90;;;;;;6184973;23;19997;-84
2022/05/09 04:00:36;;;;;;;12.07;8.20;;;11.60;99.90;;;;;;6184948;23;20017;-88
2022/05/09 04:03:22;;;;;;;11.82;9.18;;;11.60;99.90;;;;;;6184257;23;20005;-88
2022/05/09 04:05:56;;;;;;;13.00;8.18;;;11.60;99.90;;;;;;6209537;23;20008;-89
2022/05/09 04:08:28;;;;;;;14.25;8.43;;;11.60;99.90;;;;;;6210147;23;20028;-89
2022/05/09 04:10:58;;;;;;;13.98;8.85;;;11.50;99.90;;;;;;6230156;23;20002;-90
2022/05/09 04:13:26;;;;;;;12.52;8.13;;;11.60;99.90;;;;;;6212565;23;19985;-87
2022/05/09 04:18:56;;;;;;;10.43;7.63;;;11.50;99.90;;;;;;6185602;23;20012;-89
2022/05/09 04:21:27;;;;;;;13.93;7.90;;;11.50;99.90;;;;;;6209425;23;20440;-89
2022/05/09 04:24:11;;;;;;;9.93;7.80;;;11.50;99.90;;;;;;6210326;23;20384;-89
2022/05/09 04:26:43;;;;;;;14.15;8.25;;;11.50;99.90;;;;;;6185929;23;20015;-89
2022/05/09 04:29:09;;;;;;;14.85;7.80;;;11.50;99.90;;;;;;6185517;23;20423;-88
2022/05/09 04:31:35;;;;;;;12.18;8.52;;;11.50;99.90;;;;;;6186073;23;20004;-89
2022/05/09 04:34:03;;;;;;;12.32;7.80;;;11.50;99.90;;;;;;6184647;23;20431;-89
2022/05/09 04:36:42;;;;;;;12.20;8.20;;;11.50;99.90;;;;;;6184968;23;20005;-88
2022/05/09 04:39:21;;;;;;;11.88;8.43;;;11.50;99.90;;;;;;6186131;23;20008;-89
2022/05/09 04:41:50;;;;;;;15.30;8.57;;;11.50;99.90;;;;;;6208764;23;20015;-90
2022/05/09 04:44:16;;;;;;;11.27;8.50;;;11.50;99.90;;;;;;6209661;23;20009;-89
2022/05/09 04:46:44;;;;;;;12.50;8.82;;;11.50;99.90;;;;;;6209248;23;20012;-89
2022/05/09 04:49:09;;;;;;;11.23;8.45;;;11.60;99.90;;;;;;6185807;23;20046;-88
2022/05/09 04:51:38;;;;;;;10.85;7.90;;;11.60;99.90;;;;;;6209057;23;20081;-90
2022/05/09 04:54:07;;;;;;;12.30;8.15;;;11.60;99.90;;;;;;6209046;23;20008;-90
2022/05/09 04:56:35;;;;;;;14.68;8.65;;;11.60;99.90;;;;;;6185711;23;20001;-89
2022/05/09 04:59:03;;;;;;;17.33;8.63;;;11.60;99.90;;;;;;6183038;23;20025;-90
2022/05/09 05:01:29;;;;;;;15.30;9.23;;;11.60;99.90;;;;;;6209493;23;20128;-89
2022/05/09 05:03:54;;;;;;;13.05;8.85;;;11.70;99.90;;;;;;6208996;23;20032;-89
2022/05/09 05:06:20;;;;;;;13.68;9.00;;;11.70;99.90;;;;;;6183582;23;20321;-89
2022/05/09 05:08:46;;;;;;;13.73;8.85;;;11.70;99.90;;;;;;6208773;23;20008;-88
2022/05/09 05:11:11;;;;;;;14.63;9.18;;;11.70;99.90;;;;;;6208607;23;19997;-90
2022/05/09 05:13:55;;;;;;;13.02;8.80;;;11.80;99.90;;;;;;6185628;23;20004;-89
2022/05/09 05:16:59;;;;;;;13.18;9.60;;;11.80;99.90;;;;;;6185111;23;20001;-89
2022/05/09 05:19:22;;;;;;;13.90;9.52;;;11.80;99.90;;;;;;6185101;23;20009;-90
2022/05/09 05:22:01;;;;;;;14.50;11.02;;;11.90;99.90;;;;;;6209036;23;20067;-89
2022/05/09 05:24:27;;;;;;;18.23;10.85;;;11.90;99.90;;;;;;6208887;23;20012;-90
2022/05/09 05:26:54;;;;;;;17.15;10.75;;;11.90;99.90;;;;;;6185623;23;20001;-91
2022/05/09 05:29:21;;;;;;;13.18;10.20;;;12.00;99.90;;;;;;6208806;23;20032;-90
2022/05/09 05:31:47;;;;;;;15.30;10.00;;;12.10;99.90;;;;;;6185497;23;20024;-89
2022/05/09 05:34:12;;;;;;;19.50;10.57;;;12.20;99.90;;;;;;6208936;23;20040;-89
2022/05/09 05:36:45;;;;;;;15.82;9.77;;;12.20;99.90;;;;;;6209066;23;20001;-90
2022/05/09 05:39:18;;;;;;;14.77;10.15;;;12.30;99.90;;;;;;6185255;23;20001;-90
2022/05/09 05:41:53;;;;;;;17.48;9.52;;;12.40;99.90;;;;;;6182989;23;20071;-90
2022/05/09 05:44:19;;;;;;;15.95;10.20;;;12.50;99.90;;;;;;6185913;23;20009;-90
2022/05/09 05:50:46;;;;;;;15.13;9.90;;;12.50;99.90;;;;;;6184999;23;20028;-90
2022/05/09 05:53:18;;;;;;;16.92;10.05;;;12.70;99.90;;;;;;6151540;23;20002;-90
2022/05/09 05:56:03;;;;;;;13.98;9.77;;;12.70;99.90;;;;;;6160498;23;20055;-89
2022/05/09 05:58:35;;;;;;;13.82;10.63;;;12.80;99.90;;;;;;6207844;23;20009;-88
2022/05/09 06:01:08;;;;;;;12.85;10.07;;;12.90;99.90;;;;;;6207820;23;20114;-87
2022/05/09 06:03:40;;;;;;;12.02;10.13;;;12.90;99.90;;;;;;6206905;23;20005;-89
2022/05/09 06:06:13;;;;;;;19.70;10.23;;;13.00;99.90;;;;;;6207481;23;20001;-88
2022/05/09 06:08:40;;;;;;;18.17;10.90;;;13.10;99.90;;;;;;6184502;23;20000;-89
2022/05/09 06:11:06;;;;;;;14.68;10.20;;;13.10;99.90;;;;;;6208198;23;20173;-89
2022/05/09 06:14:17;;;;;;;14.55;9.68;;;13.20;99.90;;;;;;6209194;23;20001;-88
2022/05/09 06:16:45;;;;;;;13.50;9.07;;;13.30;99.90;;;;;;6171450;23;20009;-88
2022/05/09 06:19:16;;;;;;;13.02;9.38;;;13.40;99.90;;;;;;6184666;23;20216;-89
2022/05/09 06:21:42;;;;;;;15.40;10.35;;;13.40;99.90;;;;;;6181307;23;20428;-88
2022/05/09 06:24:14;;;;;;;13.52;9.32;;;13.50;99.90;;;;;;6181890;23;20120;-89
2022/05/09 06:26:40;;;;;;;15.90;10.18;;;13.60;99.90;;;;;;6206881;23;20397;-86
2022/05/09 06:29:08;;;;;;;14.05;9.48;;;13.70;99.90;;;;;;6184388;23;20035;-88
2022/05/09 06:31:46;;;;;;;15.35;9.55;;;13.80;99.90;;;;;;6184431;23;20001;-89
2022/05/09 06:34:13;;;;;;;16.05;10.00;;;13.90;99.90;;;;;;6184370;23;19993;-87
2022/05/09 06:36:41;;;;;;;11.63;9.27;;;14.00;99.90;;;;;;6206839;23;20008;-89
2022/05/09 06:39:51;;;;;;;14.88;9.75;;;14.10;99.90;;;;;;6207164;23;20012;-88
2022/05/09 06:42:33;;;;;;;13.83;9.60;;;14.20;99.90;;;;;;6207906;23;20024;-87
2022/05/09 06:44:59;;;;;;;14.45;8.88;;;14.30;99.90;;;;;;6207630;23;20291;-87
2022/05/09 06:47:27;;;;;;;13.63;9.20;;;14.30;99.90;;;;;;6182320;23;20407;-88
2022/05/09 06:49:53;;;;;;;12.43;8.48;;;14.50;99.90;;;;;;6207821;23;20061;-88
2022/05/09 06:52:19;;;;;;;12.52;9.00;;;14.60;99.90;;;;;;6208062;23;20335;-89
2022/05/09 06:54:49;;;;;;;10.23;8.45;;;14.70;99.90;;;;;;6184757;23;20016;-88
2022/05/09 06:57:15;;;;;;;9.00;7.55;;;14.80;99.90;;;;;;6183003;23;20043;-88
2022/05/09 06:59:48;;;;;;;11.65;7.60;;;14.90;99.90;;;;;;6183856;23;20008;-85
2022/05/09 07:02:20;;;;;;;10.57;7.53;;;15.00;99.90;;;;;;6207677;23;20083;-87
2022/05/09 07:04:55;;;;;;;9.63;7.70;;;15.10;99.90;;;;;;6184010;23;20399;-88
2022/05/09 07:07:23;;;;;;;10.77;7.93;;;15.20;99.90;;;;;;6182642;23;20009;-87
2022/05/09 07:09:59;;;;;;;10.05;8.15;;;15.30;99.90;;;;;;6183602;23;20009;-87
2022/05/09 07:12:25;;;;;;;10.63;7.88;;;15.40;99.90;;;;;;6183818;23;19997;-86
2022/05/09 07:14:51;;;;;;;10.70;7.25;;;15.40;99.90;;;;;;6182614;23;20012;-88
2022/05/09 07:17:16;;;;;;;14.00;7.05;;;15.40;99.90;;;;;;6182503;23;20004;-87
2022/05/09 07:19:52;;;;;;;10.32;7.13;;;15.60;99.90;;;;;;6184750;23;20076;-86
2022/05/09 07:22:18;;;;;;;10.02;7.55;;;15.70;99.90;;;;;;6228932;23;19997;-90
2022/05/09 07:24:44;;;;;;;11.18;7.00;;;15.80;99.90;;;;;;6210986;23;19997;-91
2022/05/09 07:27:10;;;;;;;9.32;6.68;;;15.80;99.90;;;;;;6223113;23;20012;-88
2022/05/09 07:29:38;;;;;;;7.68;6.28;;;15.90;99.90;;;;;;6207794;23;20004;-86
2022/05/09 07:32:07;;;;;;;8.48;6.47;;;16.10;99.90;;;;;;6184778;23;19997;-87
2022/05/09 07:34:35;;;;;;;11.93;6.63;;;16.20;99.90;;;;;;6184001;23;20009;-87
2022/05/09 07:37:01;;;;;;;12.23;7.32;;;16.30;99.90;;;;;;6207106;23;20450;-87
2022/05/09 07:39:27;;;;;;;13.15;6.28;;;16.40;99.90;;;;;;6207232;23;20005;-87
2022/05/09 07:41:52;;;;;;;8.73;6.32;;;16.30;99.90;;;;;;6207259;23;20009;-87
2022/05/09 07:44:25;;;;;;;11.68;6.78;;;16.40;99.90;;;;;;6184591;23;20016;-87
2022/05/09 07:46:51;;;;;;;8.25;6.28;;;16.50;99.90;;;;;;6182480;23;20012;-87
2022/05/09 07:49:17;;;;;;;10.75;6.30;;;16.50;99.90;;;;;;6184239;23;20001;-88
2022/05/09 07:51:42;;;;;;;8.40;6.07;;;16.60;99.90;;;;;;6207333;23;20035;-86
2022/05/09 07:54:14;;;;;;;8.25;6.40;;;16.80;99.90;;;;;;6183666;23;20021;-87
2022/05/09 07:56:51;;;;;;;9.02;5.80;;;16.80;99.90;;;;;;6183611;23;19997;-87
2022/05/09 07:59:19;;;;;;;7.43;5.85;;;16.80;99.90;;;;;;6207194;23;20088;-87
2022/05/09 08:01:44;;;;;;;8.65;6.07;;;17.00;99.90;;;;;;6183784;23;20036;-86
2022/05/09 08:04:18;;;;;;;11.43;6.32;;;17.10;99.90;;;;;;6207419;23;20016;-87
2022/05/09 08:06:47;;;;;;;8.50;5.68;;;17.20;99.90;;;;;;6182518;23;20005;-86
2022/05/09 08:09:18;;;;;;;7.30;5.90;;;17.40;99.90;;;;;;6181596;23;20001;-87
2022/05/09 08:12:05;;;;;;;8.43;5.88;;;17.30;99.90;;;;;;6184290;23;20032;-86
2022/05/09 08:14:31;;;;;;;9.10;5.20;;;17.30;99.90;;;;;;6207777;23;20005;-88
2022/05/09 08:17:09;;;;;;;11.27;5.75;;;17.60;99.90;;;;;;6208038;23;20346;-89
2022/05/09 08:19:36;;;;;;;7.13;5.70;;;17.60;99.90;;;;;;6183766;23;20005;-87
2022/05/09 08:22:04;;;;;;;7.20;5.18;;;17.70;99.50;;;;;;6207046;23;20025;-89
2022/05/09 08:24:30;;;;;;;8.35;4.95;;;17.80;99.90;;;;;;6183727;23;20015;-88
2022/05/09 08:26:56;;;;;;;9.80;5.18;;;17.90;99.90;;;;;;6207124;23;20040;-89
2022/05/09 08:32:26;;;;;;;8.13;5.57;;;18.20;97.80;;;;;;6183764;23;20048;-88
2022/05/09 08:35:00;;;;;;;10.48;5.18;;;18.40;95.70;;;;;;6214618;23;19998;-93
2022/05/09 08:37:43;;;;;;;8.15;5.30;;;18.50;94.90;;;;;;6217468;23;20036;-86
2022/05/09 08:40:13;;;;;;;6.72;5.32;;;18.50;92.90;;;;;;6184226;23;20009;-87
2022/05/09 08:42:56;;;;;;;8.13;5.43;;;18.60;93.10;;;;;;6207109;23;20069;-87
2022/05/09 08:45:41;;;;;;;8.00;5.30;;;18.70;93.70;;;;;;6206913;23;20009;-86
2022/05/09 08:48:25;;;;;;;5.30;4.20;;;18.70;91.90;;;;;;6208014;23;20009;-89
2022/05/09 08:51:06;;;;;;;10.10;4.88;;;18.90;91.00;;;;;;6185094;23;20009;-88
2022/05/09 08:53:38;;;;;;;8.38;4.80;;;19.10;90.80;;;;;;6186035;23;20012;-89
2022/05/09 08:56:12;;;;;;;6.72;4.65;;;19.20;90.80;;;;;;6186119;23;19997;-89
2022/05/09 08:59:13;;;;;;;7.90;4.95;;;19.20;90.90;;;;;;6184513;23;20035;-90
2022/05/09 09:01:48;;;;;;;6.95;4.82;;;19.40;89.60;;;;;;6174080;23;20035;-89
2022/05/09 09:04:38;;;;;;;6.05;4.50;;;19.50;88.40;;;;;;6186405;23;20521;-89
2022/05/09 09:07:31;;;;;;;6.38;4.32;;;19.60;83.50;;;;;;6208810;23;20027;-89
2022/05/09 09:10:15;;;;;;;8.23;4.32;;;19.70;83.10;;;;;;6208862;23;20005;-90
2022/05/09 09:12:57;;;;;;;7.13;4.40;;;19.60;77.50;;;;;;6208669;23;20077;-91
2022/05/09 09:15:44;;;;;;;5.90;4.40;;;19.60;79.50;;;;;;6209962;23;20000;-89
2022/05/09 09:18:36;;;;;;;7.50;3.95;;;19.80;76.70;;;;;;6186103;23;20028;-89
2022/05/09 09:21:57;;;;;;;6.05;4.00;;;20.00;75.90;;;;;;6209704;23;20008;-89
2022/05/09 09:24:54;;;;;;;6.57;4.43;;;20.10;74.70;;;;;;6153114;23;20069;-88
2022/05/09 09:27:44;;;;;;;8.45;3.83;;;20.00;73.10;;;;;;6183863;23;20005;-89
2022/05/09 09:30:16;;;;;;;4.82;3.80;;;20.30;73.50;;;;;;6177470;23;20005;-89
2022/05/09 09:32:55;;;;;;;5.00;3.60;;;20.50;71.80;;;;;;6208513;23;20005;-89
2022/05/09 09:35:37;;;;;;;6.22;4.10;;;20.60;70.60;;;;;;6185567;23;20005;-87
2022/05/09 09:38:17;;;;;;;4.95;4.05;;;20.80;69.00;;;;;;6185732;23;20052;-88
2022/05/09 09:40:52;;;;;;;7.30;3.50;;;20.80;67.60;;;;;;6208907;23;20009;-89
2022/05/09 09:43:27;;;;;;;5.65;3.55;;;20.90;63.60;;;;;;6183917;23;20092;-89
2022/05/09 09:46:07;;;;;;;5.20;3.70;;;20.90;65.30;;;;;;6208118;23;20005;-88
2022/05/09 09:48:34;;;;;;;4.97;3.60;;;21.00;65.80;;;;;;6183881;23;20016;-89
2022/05/09 09:51:26;;;;;;;4.75;3.50;;;21.20;64.90;;;;;;6220963;23;20004;-91
2022/05/09 09:53:57;;;;;;;5.45;3.70;;;21.30;64.70;;;;;;6201083;23;20072;-89
2022/05/09 09:56:24;;;;;;;;;;;21.20;65.10;;;;;;6186241;23;20008;-87
2022/05/09 09:58:50;;;;;;;4.57;3.25;;;21.50;62.60;;;;;;6186515;23;19927;-88
2022/05/09 10:01:24;;;;;;;6.20;3.80;;;21.50;61.70;;;;;;6208278;23;20009;-89
2022/05/09 10:04:25;;;;;;;7.25;3.55;;;21.50;60.40;;;;;;6208946;23;20005;-89
2022/05/09 10:07:09;;;;;;;4.90;3.65;;;21.70;60.20;;;;;;6208325;23;20064;-89
2022/05/09 10:10:10;;;;;;;5.32;3.38;;;21.70;57.60;;;;;;6185022;23;20005;-89
2022/05/09 10:12:37;;;;;;;5.20;3.72;;;21.60;57.30;;;;;;6208702;23;20367;-87
2022/05/09 10:15:35;;;;;;;8.32;3.78;;;21.80;56.90;;;;;;6208307;23;20001;-88
2022/05/09 10:18:32;;;;;;;7.63;3.08;;;22.00;56.60;;;;;;6185110;23;20025;-87
2022/05/09 10:21:01;;;;;;;4.28;3.05;;;22.10;56.90;;;;;;6185297;23;20444;-88
2022/05/09 10:26:56;;;;;;;4.05;3.35;;;22.40;54.60;;;;;;6153001;23;19997;-89
2022/05/09 10:29:32;;;;;;;6.28;3.13;;;22.80;53.20;;;;;;6126671;23;20032;-89
2022/05/09 10:32:03;;;;;;;7.05;3.00;;;22.70;52.50;;;;;;6171002;23;20034;-90
2022/05/09 10:35:14;;;;;;;3.70;3.33;;;23.00;52.90;;;;;;6208295;23;20009;-90
2022/05/09 10:37:48;;;;;;;5.03;3.33;;;23.20;51.60;;;;;;6192930;23;20001;-89
2022/05/09 10:40:45;;;;;;;3.13;2.75;;;23.20;49.40;;;;;;6208439;23;20243;-90
2022/05/09 10:43:44;;;;;;;6.00;2.97;;;23.20;50.50;;;;;;6177562;23;20016;-88
2022/05/09 10:46:20;;;;;;;7.05;2.85;;;23.20;51.40;;;;;;6185092;23;20001;-88
2022/05/09 10:49:08;;;;;;;3.80;3.13;;;23.30;51.80;;;;;;6207283;23;20005;-89
2022/05/09 10:51:59;;;;;;;6.72;2.90;;;23.60;49.60;;;;;;6184792;23;20029;-88
2022/05/09 10:54:55;;;;;;;4.15;3.30;;;23.70;49.60;;;;;;6183337;23;20088;-86
2022/05/09 10:57:55;;;;;;;5.78;3.92;;;24.00;47.40;;;;;;6207334;23;20087;-87
2022/05/09 11:00:36;;;;;;;4.68;3.10;;;24.30;48.40;;;;;;6183841;23;20009;-88
2022/05/09 11:03:20;;;;;;;9.88;3.67;;;24.60;46.60;;;;;;6184804;23;20008;-89
2022/05/09 11:06:01;;;;;;;8.43;2.88;;;25.00;47.70;;;;;;6207723;23;20459;-88
2022/05/09 11:08:39;;;;;;;4.72;3.40;;;25.30;45.60;;;;;;6208374;23;20009;-89
2022/05/09 11:11:19;;;;;;;6.57;3.00;;;25.70;44.10;;;;;;6207257;23;20070;-90
2022/05/09 11:13:44;;;;;;;4.15;3.00;;;26.10;43.60;;;;;;6207789;23;20005;-89
2022/05/09 11:16:46;;;;;;;4.55;3.13;;;26.20;44.00;;;;;;6207508;23;20011;-89
2022/05/09 11:19:44;;;;;;;5.07;3.03;;;26.10;42.50;;;;;;6184292;23;20005;-89
2022/05/09 11:22:15;;;;;;;6.00;2.80;;;26.20;42.10;;;;;;6184901;23;20084;-89
2022/05/09 11:25:29;;;;;;;5.47;3.38;;;26.20;41.20;;;;;;6184196;23;20004;-87
2022/05/09 11:28:34;;;;;;;;;;;;;;;;;;;;;
2022/05/09 11:31:55;;;;;;;6.25;2.60;;;27.20;41.00;;;;;;6181832;23;20079;-88
2022/05/09 11:34:48;;;;;;;6.03;2.83;;;27.70;40.50;;;;;;6208781;23;20005;-89
2022/05/09 11:37:44;;;;;;;5.05;3.00;;;27.80;39.10;;;;;;6211442;23;20008;-90
2022/05/09 11:40:46;;;;;;;4.78;3.08;;;28.00;38.60;;;;;;6184692;23;20001;-89
2022/05/09 11:43:37;;;;;;;4.53;2.70;;;28.90;38.10;;;;;;6208103;23;20056;-89
2022/05/09 11:46:18;;;;;;;3.90;2.70;;;29.40;37.80;;;;;;6184316;23;20036;-89
2022/05/09 11:48:49;;;;;;;5.68;2.88;;;30.00;35.90;;;;;;6207360;23;20056;-88
2022/05/09 11:51:35;;;;;;;3.42;2.72;;;30.10;35.60;;;;;;6184220;23;20016;-89
2022/05/09 11:54:17;;;;;;;6.95;2.53;;;30.10;35.20;;;;;;6208128;23;20489;-89
2022/05/09 11:56:52;;;;;;;5.10;2.45;;;29.70;35.10;;;;;;6207603;23;19997;-89
2022/05/09 11:59:32;;;;;;;2.70;2.50;;;29.40;35.70;;;;;;6207459;23;20008;-89
2022/05/09 12:02:36;;;;;;;6.07;3.00;;;29.20;36.00;;;;;;6208034;23;20088;-88
2022/05/09 12:05:33;;;;;;;4.32;2.58;;;28.40;36.00;;;;;;6185352;23;20025;-89
2022/05/09 12:08:20;;;;;;;5.63;2.70;;;27.70;36.70;;;;;;6188920;23;20009;-88
2022/05/09 12:11:31;;;;;;;3.78;2.80;;;27.60;38.50;;;;;;6209589;23;20035;-89
2022/05/09 12:14:08;;;;;;;5.53;2.88;;;27.80;38.40;;;;;;6181819;23;20452;-90
2022/05/09 12:16:39;;;;;;;5.80;2.97;;;27.60;37.80;;;;;;6208795;23;20004;-90
2022/05/09 12:19:34;;;;;;;5.05;2.92;;;27.20;38.70;;;;;;6185412;23;20080;-89
2022/05/09 12:22:57;;;;;;;6.47;3.33;;;26.80;39.40;;;;;;6207975;23;20013;-88
2022/05/09 12:25:41;;;;;;;6.38;2.97;;;26.60;39.40;;;;;;6153265;23;20029;-88
2022/05/09 12:28:36;;;;;;;5.05;2.90;;;26.60;40.00;;;;;;6130335;23;20049;-89
2022/05/09 12:31:06;;;;;;;5.30;3.08;;;26.30;40.90;;;;;;6172617;23;20013;-89
2022/05/09 12:33:57;;;;;;;3.87;3.17;;;26.00;41.20;;;;;;6213250;23;20084;-88
2022/05/09 12:36:33;;;;;;;8.43;3.22;;;26.10;41.60;;;;;;6211389;23;20012;-89
2022/05/09 12:39:10;;;;;;;3.83;2.70;;;26.10;41.90;;;;;;6191998;23;20031;-90
2022/05/09 12:41:47;;;;;;;4.07;2.88;;;25.90;40.90;;;;;;6202421;23;20013;-92
2022/05/09 12:44:20;;;;;;;6.00;3.40;;;26.10;43.10;;;;;;6237201;23;19993;-91
2022/05/09 12:47:12;;;;;;;6.60;3.28;;;26.30;41.80;;;;;;6215264;23;20012;-87
2022/05/09 12:50:03;;;;;;;4.63;2.90;;;26.40;39.90;;;;;;6209267;23;20017;-87
2022/05/09 12:52:40;;;;;;;7.50;2.63;;;26.50;40.20;;;;;;6185608;23;20005;-87
2022/05/09 12:57:57;;;;;;;4.35;2.40;;;27.10;39.80;;;;;;6185653;23;20012;-86
2022/05/09 13:00:37;;;;;;;7.43;2.97;;;27.40;39.10;;;;;;6184803;23;20009;-87
2022/05/09 13:03:14;;;;;;;5.57;3.17;;;27.50;39.20;;;;;;6209431;23;20009;-87
2022/05/09 13:05:51;;;;;;;6.00;3.03;;;27.30;39.50;;;;;;6188926;23;20403;-86
2022/05/09 13:08:16;;;;;;;6.63;2.88;;;27.30;39.00;;;;;;6209114;23;20343;-88
2022/05/09 13:11:00;;;;;;;6.05;2.45;;;27.10;38.90;;;;;;6207254;23;20016;-88
2022/05/09 13:13:37;;;;;;;4.40;3.03;;;27.20;39.30;;;;;;6185859;23;19993;-86
2022/05/09 13:16:10;;;;;;;5.43;3.00;;;27.50;39.20;;;;;;6186013;23;20005;-88
2022/05/09 13:18:56;;;;;;;7.35;2.72;;;27.70;39.60;;;;;;6185402;23;20001;-88
2022/05/09 13:21:31;;;;;;;3.00;2.33;;;27.90;38.80;;;;;;6184369;23;20009;-87
2022/05/09 13:24:08;;;;;;;5.00;3.05;;;28.10;38.00;;;;;;6209015;23;20001;-87
2022/05/09 13:26:42;;;;;;;4.97;3.20;;;28.20;37.10;;;;;;6185098;23;20432;-87
2022/05/09 13:29:10;;;;;;;4.22;3.00;;;28.00;39.30;;;;;;6208273;23;20488;-85
2022/05/09 13:31:58;;;;;;;6.57;2.95;;;28.70;38.40;;;;;;6183945;23;20020;-87
2022/05/09 13:34:34;;;;;;;5.00;3.05;;;28.60;37.90;;;;;;6209263;23;20007;-89
2022/05/09 13:37:12;;;;;;;4.47;3.05;;;29.10;38.10;;;;;;6208347;23;20033;-88
2022/05/09 13:42:57;;;;;;;4.00;2.95;;;29.80;36.70;;;;;;6094299;23;20007;-87
2022/05/09 13:45:34;;;;;;;6.82;3.17;;;29.70;37.00;;;;;;6161851;23;20005;-88